Time;durP1;ratioP1;P1;durP2;ratioP2;P2;SDS_P1;SDS_P2;PMS_P1;PMS_P2;Temp;Humidity;BMP_temperature;BMP_pressure;BME280_temperature;BME280_humidity;BME280_pressure;Samples;Min_cycle;Max_cycle;Signal;HPM_P1;HPM_P2
2022/06/11 00:00:56;;;;;;;1.30;1.15;;;;;;;25.64;37.35;96836.69;5127566;27;20050;-25
2022/06/11 00:03:21;;;;;;;1.70;1.00;;;;;;;25.66;37.44;96831.34;5135096;27;20027;-25
2022/06/11 00:05:47;;;;;;;2.50;1.02;;;;;;;25.59;37.39;96823.56;5135083;27;20459;-25
2022/06/11 00:08:13;;;;;;;1.95;1.00;;;;;;;25.57;37.64;96831.66;5134962;27;20046;-25
2022/06/11 00:10:39;;;;;;;1.73;0.90;;;;;;;25.58;37.63;96838.72;5134719;27;20042;-25
2022/06/11 00:13:05;;;;;;;1.00;0.85;;;;;;;25.55;37.72;96834.97;5134693;27;20051;-25
2022/06/11 00:15:32;;;;;;;2.25;1.25;;;;;;;25.45;37.88;96841.34;5134843;27;20119;-25
2022/06/11 00:17:58;;;;;;;1.08;0.98;;;;;;;25.56;37.44;96836.47;5134994;27;20497;-25
2022/06/11 00:20:28;;;;;;;1.88;1.27;;;;;;;25.67;37.40;96835.66;5134865;27;20031;-25
2022/06/11 00:22:53;;;;;;;2.03;1.23;;;;;;;25.61;37.54;96838.47;5132469;27;20029;-25
2022/06/11 00:25:20;;;;;;;1.60;1.05;;;;;;;25.63;37.49;96835.16;5134781;27;20023;-25
2022/06/11 00:27:47;;;;;;;1.77;1.10;;;;;;;25.55;37.65;96834.19;5134722;27;20046;-25
2022/06/11 00:30:14;;;;;;;2.20;1.10;;;;;;;25.48;37.68;96835.50;5134552;27;20054;-25
2022/06/11 00:32:40;;;;;;;1.27;1.00;;;;;;;25.57;37.53;96828.88;5134532;27;20020;-25
2022/06/11 00:35:07;;;;;;;1.10;1.00;;;;;;;25.50;37.66;96827.41;5134184;27;20160;-25
2022/06/11 00:37:33;;;;;;;1.60;1.20;;;;;;;25.51;37.55;96820.59;5134278;27;20110;-25
2022/06/11 00:39:59;;;;;;;3.28;1.13;;;;;;;25.54;37.81;96824.38;5134600;27;20110;-25
2022/06/11 00:42:28;;;;;;;1.60;1.30;;;;;;;25.56;37.83;96819.81;5134364;27;20031;-25
2022/06/11 00:45:17;;;;;;;4.72;1.42;;;;;;;25.55;37.52;96823.84;5134561;27;20114;-25
2022/06/11 00:47:50;;;;;;;1.27;1.10;;;;;;;25.59;37.50;96812.47;5135339;27;20487;-25
2022/06/11 00:50:46;;;;;;;1.85;1.00;;;;;;;25.65;37.56;96808.38;5135604;27;20038;-25
2022/06/11 00:53:18;;;;;;;2.28;1.10;;;;;;;25.55;37.83;96814.75;5117689;27;20023;-25
2022/06/11 00:55:46;;;;;;;1.35;1.08;;;;;;;25.58;37.83;96810.97;5136216;27;20029;-25
2022/06/11 00:58:23;;;;;;;2.60;1.40;;;;;;;25.60;37.50;96808.38;5117607;27;20443;-25
2022/06/11 01:00:52;;;;;;;1.38;1.08;;;;;;;25.57;37.70;96810.19;5136017;27;20420;-25
2022/06/11 01:03:23;;;;;;;1.13;1.00;;;;;;;25.57;37.52;96804.66;5136004;27;20023;-25
2022/06/11 01:05:55;;;;;;;1.17;1.10;;;;;;;25.57;37.67;96798.34;5136019;27;20102;-25
2022/06/11 01:08:40;;;;;;;1.90;1.10;;;;;;;25.60;37.73;96786.16;5136233;27;20024;-25
2022/06/11 01:11:27;;;;;;;1.48;1.30;;;;;;;25.59;37.54;96790.97;5135857;27;20787;-25
2022/06/11 01:13:59;;;;;;;1.55;1.30;;;;;;;25.55;37.68;96790.53;5117189;27;20437;-25
2022/06/11 01:16:31;;;;;;;0.87;0.87;;;;;;;25.62;37.58;96784.41;5135687;27;20059;-25
2022/06/11 01:19:06;;;;;;;1.10;1.00;;;;;;;25.54;37.58;96771.59;5117345;27;20026;-25
2022/06/11 01:21:52;;;;;;;1.73;1.13;;;;;;;25.60;37.57;96783.41;5135544;27;20050;-25
2022/06/11 01:24:52;;;;;;;1.50;1.00;;;;;;;25.54;37.57;96782.69;5135560;27;20483;-25
2022/06/11 01:27:49;;;;;;;2.17;1.00;;;;;;;25.50;37.41;96782.22;5135398;27;20444;-25
2022/06/11 01:30:30;;;;;;;1.38;1.10;;;;;;;25.58;37.49;96778.38;5083404;27;20403;-25
2022/06/11 01:33:13;;;;;;;1.40;0.95;;;;;;;25.57;37.44;96774.09;5135504;27;20023;-25
2022/06/11 01:35:44;;;;;;;1.40;1.10;;;;;;;25.56;37.67;96772.59;5135147;27;20490;-25
2022/06/11 01:38:23;;;;;;;1.95;1.08;;;;;;;25.49;37.54;96778.69;5135340;27;20109;-25
2022/06/11 01:41:01;;;;;;;2.22;0.90;;;;;;;25.51;37.71;96792.06;5135491;27;20027;-25
2022/06/11 01:43:39;;;;;;;1.30;1.20;;;;;;;25.51;37.49;96789.28;5135257;27;20027;-25
2022/06/11 01:46:19;;;;;;;1.20;1.10;;;;;;;25.55;37.57;96784.22;5134991;27;20020;-25
2022/06/11 01:49:00;;;;;;;1.25;0.95;;;;;;;25.59;37.42;96790.97;5135121;27;20391;-25
2022/06/11 01:51:32;;;;;;;1.42;1.20;;;;;;;25.50;37.59;96807.97;5135226;27;20027;-25
2022/06/11 01:54:41;;;;;;;1.23;1.13;;;;;;;25.54;37.46;96799.38;5134800;27;20026;-25
2022/06/11 01:57:27;;;;;;;2.30;1.00;;;;;;;25.56;37.37;96796.81;5095436;27;20043;-24
2022/06/11 02:00:08;;;;;;;1.13;0.80;;;;;;;25.59;37.42;96809.69;5135065;27;20030;-25
2022/06/11 02:02:46;;;;;;;1.10;0.93;;;;;;;25.52;37.51;96815.78;5134722;27;20023;-25
2022/06/11 02:05:33;;;;;;;1.25;1.05;;;;;;;25.52;37.58;96810.22;5134890;27;20019;-25
2022/06/11 02:08:48;;;;;;;1.45;1.00;;;;;;;25.56;37.35;96816.28;5134953;27;20026;-25
2022/06/11 02:11:22;;;;;;;1.15;0.95;;;;;;;25.56;37.38;96821.81;5031691;28;20045;-25
2022/06/11 02:13:56;;;;;;;1.20;1.02;;;;;;;25.58;37.38;96824.84;5031281;28;20061;-25
2022/06/11 02:16:32;;;;;;;1.33;1.08;;;;;;;25.58;37.44;96822.06;5031596;28;20029;-25
2022/06/11 02:19:01;;;;;;;3.42;1.10;;;;;;;25.59;37.37;96818.03;5031771;28;20033;-25
2022/06/11 02:21:32;;;;;;;1.20;1.00;;;;;;;25.49;37.47;96822.38;5031451;28;20037;-25
2022/06/11 02:24:15;;;;;;;2.35;1.27;;;;;;;25.55;37.19;96828.66;5031416;28;20040;-25
2022/06/11 02:26:46;;;;;;;1.20;0.90;;;;;;;25.48;37.35;96823.63;5031692;28;20094;-25
2022/06/11 02:29:15;;;;;;;1.15;0.80;;;;;;;25.53;37.22;96820.81;5031337;28;20116;-25
2022/06/11 02:31:45;;;;;;;1.35;1.00;;;;;;;25.51;37.61;96817.06;5031461;28;20060;-25
2022/06/11 02:34:14;;;;;;;1.20;1.00;;;;;;;25.55;37.35;96823.09;5031464;28;20116;-24
2022/06/11 02:36:55;;;;;;;1.30;1.20;;;;;;;25.54;37.29;96827.13;5031146;28;20095;-25
2022/06/11 02:39:21;;;;;;;1.52;1.20;;;;;;;25.44;37.58;96828.72;5031354;28;20034;-25
2022/06/11 02:41:48;;;;;;;1.95;1.00;;;;;;;25.46;37.71;96821.41;5031092;28;20033;-25
2022/06/11 02:44:14;;;;;;;2.47;1.25;;;;;;;25.59;37.19;96815.25;5031226;28;20033;-25
2022/06/11 02:46:43;;;;;;;3.72;1.10;;;;;;;25.61;37.23;96821.78;5075256;28;20040;-25
2022/06/11 02:49:33;;;;;;;1.67;1.00;;;;;;;25.53;37.21;96809.72;5111394;28;20072;-25
2022/06/11 02:52:03;;;;;;;1.60;0.90;;;;;;;25.47;37.35;96805.50;5113985;28;20024;-25
2022/06/11 02:54:29;;;;;;;1.30;1.00;;;;;;;25.39;37.58;96806.03;5113777;28;20034;-25
2022/06/11 02:56:57;;;;;;;1.30;1.10;;;;;;;25.40;37.53;96807.53;5112343;28;20023;-25
2022/06/11 02:59:24;;;;;;;1.08;0.98;;;;;;;25.47;37.74;96813.81;5113768;28;20023;-25
2022/06/11 03:01:52;;;;;;;1.30;1.20;;;;;;;25.45;37.42;96811.56;5113557;28;20019;-25
2022/06/11 03:04:19;;;;;;;2.55;1.00;;;;;;;25.48;37.31;96809.75;5113587;28;20029;-25
2022/06/11 03:06:45;;;;;;;1.10;1.00;;;;;;;25.47;37.63;96811.78;5113551;28;20019;-25
2022/06/11 03:09:14;;;;;;;1.17;1.00;;;;;;;25.47;37.21;96808.28;5113587;28;20019;-25
2022/06/11 03:11:40;;;;;;;1.88;1.38;;;;;;;25.48;37.58;96816.06;5114131;28;20085;-25
2022/06/11 03:14:06;;;;;;;1.30;0.98;;;;;;;25.52;37.18;96813.00;5135307;27;20050;-25
2022/06/11 03:16:31;;;;;;;1.30;1.20;;;;;;;25.47;37.35;96819.38;5138259;27;20474;-24
2022/06/11 03:18:57;;;;;;;1.42;1.05;;;;;;;25.52;37.48;96821.34;5137912;27;20055;-24
2022/06/11 03:21:22;;;;;;;1.00;0.90;;;;;;;25.49;37.39;96822.38;5138108;27;20023;-25
2022/06/11 03:23:49;;;;;;;1.02;0.93;;;;;;;25.48;37.49;96824.38;5137861;27;20058;-25
2022/06/11 03:26:15;;;;;;;1.80;1.20;;;;;;;25.44;37.71;96818.38;5137993;27;20019;-25
2022/06/11 03:28:40;;;;;;;1.23;1.02;;;;;;;25.41;37.49;96817.38;5137855;27;20408;-25
2022/06/11 03:31:06;;;;;;;1.70;0.90;;;;;;;25.49;37.76;96825.91;5137730;27;20016;-25
2022/06/11 03:33:36;;;;;;;1.70;1.08;;;;;;;25.48;37.41;96831.97;5137742;27;20019;-25
2022/06/11 03:36:05;;;;;;;1.20;1.10;;;;;;;25.41;37.79;96834.03;5137831;27;20544;-24
2022/06/11 03:38:31;;;;;;;1.20;1.10;;;;;;;25.34;37.93;96829.06;5137419;27;20030;-25
2022/06/11 03:40:57;;;;;;;1.63;1.00;;;;;;;25.29;37.98;96832.63;5137965;27;20031;-25
2022/06/11 03:43:23;;;;;;;2.72;1.30;;;;;;;25.26;37.83;96839.19;5137610;27;20474;-25
2022/06/11 03:45:49;;;;;;;1.27;1.10;;;;;;;25.34;37.73;96840.16;5137490;27;20030;-25
2022/06/11 03:48:15;;;;;;;1.40;1.20;;;;;;;25.29;38.13;96846.50;5137684;27;20023;-25
2022/06/11 03:50:41;;;;;;;1.80;1.02;;;;;;;25.30;37.97;96848.00;5137459;27;20023;-25
2022/06/11 03:53:09;;;;;;;2.65;1.48;;;;;;;25.27;38.12;96840.69;5137303;27;20023;-25
2022/06/11 03:55:35;;;;;;;1.20;1.10;;;;;;;25.31;37.87;96848.75;5137188;27;20114;-25
2022/06/11 03:58:01;;;;;;;2.60;1.17;;;;;;;25.24;38.22;96855.59;5137300;27;20063;-25
2022/06/11 04:03:14;;;;;;;2.28;1.00;;;;;;;25.34;37.71;96858.84;5137529;27;20034;-25
2022/06/11 04:05:42;;;;;;;1.25;1.10;;;;;;;25.22;38.22;96857.41;5136939;27;20501;-25
2022/06/11 04:08:09;;;;;;;2.25;1.33;;;;;;;25.26;37.95;96861.41;5137178;27;20054;-25
2022/06/11 04:10:37;;;;;;;1.30;1.20;;;;;;;25.27;38.18;96860.13;5137099;27;20027;-25
2022/06/11 04:13:03;;;;;;;1.73;1.10;;;;;;;25.27;38.02;96873.25;5136913;27;20043;-25
2022/06/11 04:15:28;;;;;;;1.40;1.30;;;;;;;25.34;38.17;96864.41;5136810;27;20035;-25
2022/06/11 04:17:54;;;;;;;3.40;1.25;;;;;;;25.32;37.97;96875.25;5137110;27;20035;-25
2022/06/11 04:20:20;;;;;;;3.28;1.20;;;;;;;25.32;38.12;96872.47;5136827;27;20026;-25
2022/06/11 04:22:45;;;;;;;2.03;1.45;;;;;;;25.27;38.13;96870.47;5136848;27;20023;-25
2022/06/11 04:25:13;;;;;;;1.40;1.30;;;;;;;25.25;38.08;96873.78;5135775;27;20011;-25
2022/06/11 04:27:39;;;;;;;1.30;1.20;;;;;;;25.30;38.08;96875.78;5136393;27;20027;-25
2022/06/11 04:30:05;;;;;;;1.48;1.38;;;;;;;25.29;38.36;96879.06;5136989;27;20034;-25
2022/06/11 04:32:31;;;;;;;2.03;1.27;;;;;;;25.33;37.99;96869.19;5136572;27;20070;-25
2022/06/11 04:34:57;;;;;;;1.42;1.25;;;;;;;25.32;38.16;96884.34;5136460;27;20019;-25
2022/06/11 04:37:26;;;;;;;2.30;1.15;;;;;;;25.34;38.04;96884.59;5136570;27;20057;-25
2022/06/11 04:39:54;;;;;;;2.17;1.30;;;;;;;25.33;37.94;96888.63;5136631;27;20015;-25
2022/06/11 04:42:22;;;;;;;1.73;1.30;;;;;;;25.31;38.38;96882.84;5136387;27;20034;-25
2022/06/11 04:44:48;;;;;;;1.25;1.15;;;;;;;25.38;38.20;96887.06;5118045;27;20023;-25
2022/06/11 04:47:18;;;;;;;2.13;1.20;;;;;;;25.32;38.30;96889.91;5136360;27;20027;-25
2022/06/11 04:49:45;;;;;;;1.65;1.17;;;;;;;25.24;38.24;96891.69;5136193;27;20019;-25
2022/06/11 04:52:10;;;;;;;1.65;1.30;;;;;;;25.34;38.23;96890.13;5136426;27;20405;-25
2022/06/11 04:54:36;;;;;;;2.10;1.27;;;;;;;25.32;38.23;96895.44;5136075;27;20019;-25
2022/06/11 04:57:02;;;;;;;1.63;1.23;;;;;;;25.31;38.23;96896.72;5136094;27;20070;-25
2022/06/11 04:59:29;;;;;;;1.30;1.20;;;;;;;25.28;38.25;96888.66;5136351;27;20027;-25
2022/06/11 05:01:55;;;;;;;1.80;1.13;;;;;;;25.27;38.51;96890.66;5136108;27;20069;-25
2022/06/11 05:04:20;;;;;;;1.58;1.38;;;;;;;25.19;38.53;96891.72;5135939;27;20109;-25
2022/06/11 05:06:46;;;;;;;1.25;1.10;;;;;;;25.22;38.73;96905.31;5135915;27;20019;-25
2022/06/11 05:09:16;;;;;;;2.90;1.50;;;;;;;25.21;38.92;96903.84;5135796;27;20479;-24
2022/06/11 05:11:42;;;;;;;2.38;1.20;;;;;;;25.21;38.62;96900.31;5135656;27;20038;-25
2022/06/11 05:14:07;;;;;;;2.15;1.50;;;;;;;25.18;38.92;96901.31;5135659;27;20050;-24
2022/06/11 05:16:34;;;;;;;2.00;1.52;;;;;;;25.18;38.91;96902.09;5135795;27;20470;-25
2022/06/11 05:19:00;;;;;;;1.60;1.25;;;;;;;25.19;38.77;96906.38;5135625;27;20475;-25
2022/06/11 05:21:26;;;;;;;1.42;1.25;;;;;;;25.22;38.86;96902.53;5135649;27;20118;-25
2022/06/11 05:23:52;;;;;;;1.55;1.17;;;;;;;25.27;38.95;96910.09;5135422;27;20060;-24
2022/06/11 05:26:21;;;;;;;2.90;1.27;;;;;;;25.22;38.83;96902.53;5135723;27;20027;-25
2022/06/11 05:28:48;;;;;;;2.40;1.25;;;;;;;25.18;38.93;96912.44;5135579;27;20027;-24
2022/06/11 05:31:13;;;;;;;1.30;1.15;;;;;;;25.25;38.94;96914.66;5135422;27;20041;-25
2022/06/11 05:33:40;;;;;;;1.80;1.30;;;;;;;25.24;38.85;96918.69;5135338;27;20015;-25
2022/06/11 05:36:07;;;;;;;1.73;1.30;;;;;;;25.23;39.07;96911.63;5135366;27;20034;-25
2022/06/11 05:38:32;;;;;;;2.45;1.33;;;;;;;25.25;38.86;96923.72;5134801;27;20051;-25
2022/06/11 05:40:58;;;;;;;3.67;1.60;;;;;;;25.19;38.94;96914.69;5135379;27;20135;-25
2022/06/11 05:43:26;;;;;;;1.73;1.42;;;;;;;25.24;38.90;96921.47;5135523;27;20539;-25
2022/06/11 05:46:20;;;;;;;1.67;1.35;;;;;;;25.25;39.05;96923.72;5135074;27;20072;-25
2022/06/11 05:48:49;;;;;;;3.58;1.40;;;;;;;25.28;38.88;96924.75;5131395;27;20495;-25
2022/06/11 05:51:20;;;;;;;1.33;1.20;;;;;;;25.26;38.93;96928.03;5109764;27;20026;-25
2022/06/11 05:53:49;;;;;;;1.95;1.27;;;;;;;25.16;39.43;96929.59;5117327;27;20076;-25
2022/06/11 05:56:15;;;;;;;1.95;1.60;;;;;;;25.21;39.24;96926.03;5114037;27;20089;-25
2022/06/11 05:58:49;;;;;;;5.05;1.67;;;;;;;25.19;39.23;96941.69;5132691;27;20030;-25
2022/06/11 06:01:17;;;;;;;1.70;1.60;;;;;;;25.18;39.44;96945.72;5133021;27;20115;-25
2022/06/11 06:03:43;;;;;;;2.55;1.85;;;;;;;25.09;39.59;96948.81;5132697;27;20023;-24
2022/06/11 06:06:08;;;;;;;2.10;1.60;;;;;;;25.12;39.19;96950.53;5132809;27;20022;-25
2022/06/11 06:08:35;;;;;;;1.77;1.60;;;;;;;25.21;39.43;96953.03;5110469;28;20023;-25
2022/06/11 06:11:01;;;;;;;2.20;1.40;;;;;;;25.21;39.36;96955.81;5112263;28;20038;-25
2022/06/11 06:16:10;;;;;;;1.80;1.50;;;;;;;25.20;39.35;96959.88;5111895;28;20030;-25
2022/06/11 06:18:36;;;;;;;1.50;1.30;;;;;;;25.26;39.12;96952.25;5111827;28;20020;-25
2022/06/11 06:21:01;;;;;;;2.72;1.33;;;;;;;25.20;39.36;96955.06;5110032;28;20211;-25
2022/06/11 06:23:27;;;;;;;1.40;1.20;;;;;;;25.19;39.29;96956.31;5111989;28;20069;-25
2022/06/11 06:25:52;;;;;;;1.70;1.60;;;;;;;25.14;39.52;96967.44;5111558;28;20019;-25
2022/06/11 06:28:17;;;;;;;1.88;1.67;;;;;;;25.17;39.39;96969.97;5093786;28;20019;-25
2022/06/11 06:30:43;;;;;;;2.20;1.70;;;;;;;25.22;39.42;96969.16;5112057;28;20024;-25
2022/06/11 06:33:08;;;;;;;1.75;1.40;;;;;;;25.25;39.41;96970.16;5111953;28;20031;-25
2022/06/11 06:35:34;;;;;;;1.83;1.58;;;;;;;25.20;39.33;96966.16;5111588;28;20027;-25
2022/06/11 06:38:00;;;;;;;4.15;1.60;;;;;;;25.23;39.19;96976.22;5111695;28;20075;-25
2022/06/11 06:40:26;;;;;;;1.77;1.67;;;;;;;25.21;39.58;96978.78;5111508;28;20050;-25
2022/06/11 06:42:51;;;;;;;1.98;1.52;;;;;;;25.26;39.30;96974.47;5111825;28;20035;-25
2022/06/11 06:45:17;;;;;;;2.05;1.48;;;;;;;25.24;39.35;96979.75;5116465;28;20223;-25
2022/06/11 06:47:43;;;;;;;2.00;1.25;;;;;;;25.11;39.57;96976.78;5132227;27;20023;-25
2022/06/11 06:50:08;;;;;;;4.88;1.75;;;;;;;24.55;41.20;96980.44;5134984;27;20104;-29
2022/06/11 06:52:34;;;;;;;2.50;1.40;;;;;;;24.12;42.24;96993.03;5136299;27;20027;-27
2022/06/11 06:55:00;;;;;;;2.63;1.75;;;;;;;24.36;41.75;96989.81;5135678;27;20526;-27
2022/06/11 06:57:25;;;;;;;3.47;1.80;;;;;;;24.75;40.55;96992.50;5136446;27;20106;-27
2022/06/11 06:59:51;;;;;;;3.13;1.80;;;;;;;24.80;40.75;96991.75;5136438;27;20051;-27
2022/06/11 07:02:17;;;;;;;2.08;1.48;;;;;;;24.75;40.84;96992.50;5135785;27;20019;-27
2022/06/11 07:04:42;;;;;;;2.08;1.60;;;;;;;24.89;40.64;96997.75;5136117;27;20850;-29
2022/06/11 07:07:14;;;;;;;2.50;1.90;;;;;;;24.98;40.08;96991.22;5135731;27;20027;-28
2022/06/11 07:09:39;;;;;;;2.80;2.10;;;;;;;25.04;40.02;96995.50;5135574;27;20076;-27
2022/06/11 07:12:05;;;;;;;2.38;1.65;;;;;;;24.93;40.17;97001.06;5131155;27;20395;-27
2022/06/11 07:14:31;;;;;;;3.17;1.80;;;;;;;24.98;40.13;97000.28;5115047;28;20036;-27
2022/06/11 07:16:59;;;;;;;2.90;1.70;;;;;;;25.03;40.06;97001.53;5115453;28;20031;-27
2022/06/11 07:19:38;;;;;;;1.90;1.60;;;;;;;24.88;40.42;97003.81;5106046;28;20071;-26
2022/06/11 07:22:09;;;;;;;6.30;1.80;;;;;;;25.07;40.11;97006.84;5105892;28;20649;-28
2022/06/11 07:24:37;;;;;;;3.90;1.83;;;;;;;24.75;40.71;97001.56;5115281;28;20038;-27
2022/06/11 07:27:06;;;;;;;2.10;1.60;;;;;;;24.90;40.46;97004.06;5114815;28;20027;-28
2022/06/11 07:29:37;;;;;;;3.60;1.67;;;;;;;24.86;40.61;97004.31;5115202;28;20032;-27
2022/06/11 07:32:08;;;;;;;4.03;1.98;;;;;;;25.02;40.18;97002.81;5115099;28;20046;-26
2022/06/11 07:34:35;;;;;;;3.28;1.70;;;;;;;25.07;40.08;97013.16;5114945;28;20019;-29
2022/06/11 07:37:01;;;;;;;1.65;1.48;;;;;;;25.05;40.20;97005.31;5114314;28;20023;-27
2022/06/11 07:39:27;;;;;;;2.67;1.70;;;;;;;24.96;40.52;96991.75;5111778;27;20019;-27
2022/06/11 07:41:52;;;;;;;1.73;1.63;;;;;;;24.93;40.62;96992.00;5114937;28;20031;-27
2022/06/11 07:44:18;;;;;;;2.63;1.65;;;;;;;24.96;40.30;96996.53;5115017;28;20031;-27
2022/06/11 07:46:43;;;;;;;3.78;1.80;;;;;;;24.85;40.59;96988.22;5097706;28;20016;-27
2022/06/11 07:49:09;;;;;;;2.50;1.70;;;;;;;24.65;41.21;96990.00;5094519;28;20020;-27
2022/06/11 07:51:34;;;;;;;2.00;1.70;;;;;;;24.56;41.36;96981.97;5093911;28;20032;-28
2022/06/11 07:53:59;;;;;;;1.95;1.40;;;;;;;24.78;40.86;96983.94;5094497;28;20031;-28
2022/06/11 07:56:25;;;;;;;3.05;1.80;;;;;;;24.76;41.08;96988.47;5094164;28;20032;-27
2022/06/11 07:58:52;;;;;;;2.60;1.60;;;;;;;24.94;40.65;96999.06;5094033;28;20024;-27
2022/06/11 08:01:18;;;;;;;4.30;1.70;;;;;;;24.79;41.18;96998.56;5093831;28;20054;-27
2022/06/11 08:03:44;;;;;;;4.22;2.28;;;;;;;24.87;40.86;96994.75;5093859;28;20089;-27
2022/06/11 08:06:10;;;;;;;3.88;1.63;;;;;;;24.55;41.78;96991.53;5094137;28;20028;-27
2022/06/11 08:08:36;;;;;;;2.45;1.80;;;;;;;24.64;41.44;96999.59;5093717;28;20112;-27
2022/06/11 08:11:04;;;;;;;3.30;2.20;;;;;;;24.60;41.75;96996.31;5094291;28;20019;-28
2022/06/11 08:13:30;;;;;;;2.72;1.90;;;;;;;24.49;42.01;97001.09;5110748;28;20090;-28
2022/06/11 08:15:56;;;;;;;2.47;1.60;;;;;;;24.59;41.43;97000.38;5115064;28;20027;-28
2022/06/11 08:18:24;;;;;;;2.35;2.08;;;;;;;24.69;41.27;97012.69;5115510;28;20024;-27
2022/06/11 08:20:52;;;;;;;2.25;1.60;;;;;;;24.61;41.43;96999.84;5115693;28;20032;-27
2022/06/11 08:23:22;;;;;;;2.72;1.90;;;;;;;24.56;41.83;97001.38;5115685;28;20395;-28
2022/06/11 08:25:48;;;;;;;3.60;1.85;;;;;;;24.80;41.23;97003.59;5116200;28;20024;-27
2022/06/11 08:28:15;;;;;;;1.70;1.58;;;;;;;24.89;41.08;97008.09;5115627;28;20077;-27
2022/06/11 08:30:41;;;;;;;4.00;2.10;;;;;;;24.77;41.38;97006.63;5115061;28;20080;-27
2022/06/11 08:33:07;;;;;;;2.42;1.55;;;;;;;24.62;41.73;97002.09;5096806;28;20032;-27
2022/06/11 08:35:34;;;;;;;4.20;1.88;;;;;;;24.86;41.18;97011.88;5115676;28;20047;-27
2022/06/11 08:38:00;;;;;;;4.57;1.65;;;;;;;24.59;41.94;97003.13;5115584;28;20031;-28
2022/06/11 08:40:32;;;;;;;3.50;1.80;;;;;;;24.85;41.31;97008.38;5115160;28;20027;-27
2022/06/11 08:43:26;;;;;;;2.42;1.70;;;;;;;24.78;41.50;97010.91;5115519;28;20039;-27
2022/06/11 08:46:07;;;;;;;3.28;2.10;;;;;;;24.67;41.54;97006.91;5115397;28;20035;-28
2022/06/11 08:48:41;;;;;;;2.20;2.00;;;;;;;24.60;41.83;97010.16;5115496;28;20028;-26
2022/06/11 08:51:10;;;;;;;3.97;1.80;;;;;;;24.87;41.08;97005.09;5114850;28;20022;-27
2022/06/11 08:53:38;;;;;;;2.67;1.80;;;;;;;24.95;40.89;97014.44;5114819;28;20035;-28
2022/06/11 08:56:05;;;;;;;2.42;2.15;;;;;;;24.96;40.75;97008.38;5115103;28;20098;-28
2022/06/11 08:58:45;;;;;;;2.20;1.77;;;;;;;24.98;40.83;97016.19;5115634;28;20093;-28
2022/06/11 09:01:16;;;;;;;5.00;1.88;;;;;;;24.95;41.10;97022.75;5115518;28;20023;-27
2022/06/11 09:03:57;;;;;;;2.63;1.80;;;;;;;25.13;40.35;97024.97;5115370;28;20388;-27
2022/06/11 09:06:31;;;;;;;5.07;1.88;;;;;;;25.12;40.17;97026.22;5115329;28;20024;-27
2022/06/11 09:09:02;;;;;;;2.00;1.77;;;;;;;25.23;40.20;97012.31;5115375;28;20031;-27
2022/06/11 09:11:28;;;;;;;2.28;1.85;;;;;;;25.18;40.17;97017.91;5114750;28;20016;-27
2022/06/11 09:14:23;;;;;;;2.85;1.70;;;;;;;25.18;39.99;97015.88;5114982;28;20492;-28
2022/06/11 09:17:10;;;;;;;3.13;1.80;;;;;;;25.07;40.54;97015.91;5115139;28;20027;-27
2022/06/11 09:20:07;;;;;;;3.08;1.80;;;;;;;25.08;40.68;97019.44;5115125;28;20019;-27
2022/06/11 09:22:39;;;;;;;4.65;1.92;;;;;;;25.18;40.31;97021.44;5114845;28;20016;-27
2022/06/11 09:25:20;;;;;;;3.28;1.50;;;;;;;25.16;40.39;97012.09;5096817;28;20110;-27
2022/06/11 09:27:50;;;;;;;4.35;1.90;;;;;;;25.21;39.95;97008.56;5115044;28;20105;-27
2022/06/11 09:30:24;;;;;;;3.25;1.83;;;;;;;25.22;40.17;97027.47;5114979;28;20499;-27
2022/06/11 09:33:06;;;;;;;3.92;1.90;;;;;;;25.27;40.04;97025.94;5114829;28;20031;-27
2022/06/11 09:35:39;;;;;;;2.47;1.70;;;;;;;25.31;39.67;97020.88;5114692;28;20119;-27
2022/06/11 09:38:18;;;;;;;;;;;;;;;25.16;40.21;97012.84;5115311;28;20533;-26
2022/06/11 09:40:49;;;;;;;4.63;2.25;;;;;;;25.20;40.14;97016.13;5114626;28;19907;-27
2022/06/11 09:43:30;;;;;;;4.68;1.88;;;;;;;25.26;39.92;97025.19;5114566;28;20051;-26
2022/06/11 09:46:20;;;;;;;3.03;1.98;;;;;;;25.25;40.10;97009.03;5114585;28;20019;-29
2022/06/11 09:49:03;;;;;;;2.80;1.98;;;;;;;25.19;40.13;97019.41;5114395;28;20034;-27
2022/06/11 09:51:34;;;;;;;2.15;1.88;;;;;;;25.16;40.38;97003.78;5114541;28;20062;-27
2022/06/11 09:54:10;;;;;;;4.78;1.70;;;;;;;25.22;40.15;97010.06;5114343;28;20114;-27
2022/06/11 09:57:24;;;;;;;3.35;2.00;;;;;;;25.28;40.04;97010.78;5096303;28;20401;-27
2022/06/11 09:59:55;;;;;;;4.25;1.80;;;;;;;25.24;40.05;97005.50;5024642;28;20042;-27
2022/06/11 10:02:57;;;;;;;2.70;1.77;;;;;;;25.18;40.10;97007.56;5114366;28;20444;-28
2022/06/11 10:05:41;;;;;;;3.05;1.55;;;;;;;25.29;39.81;97003.97;5114635;28;20012;-27
2022/06/11 10:08:25;;;;;;;4.10;1.85;;;;;;;25.31;39.68;96999.44;5114441;28;20398;-28
2022/06/11 10:10:52;;;;;;;3.30;1.58;;;;;;;25.34;39.68;96997.66;5120054;27;20102;-27
2022/06/11 10:13:37;;;;;;;2.13;1.88;;;;;;;25.31;39.34;97004.22;5134390;27;20491;-27
2022/06/11 10:16:22;;;;;;;1.70;1.58;;;;;;;25.29;39.54;97001.97;5134714;27;20058;-28
2022/06/11 10:18:51;;;;;;;4.22;1.65;;;;;;;25.34;39.16;97003.97;5134634;27;20458;-28
2022/06/11 10:21:19;;;;;;;5.47;1.63;;;;;;;25.33;39.15;97002.47;5115509;27;20027;-27
2022/06/11 10:23:50;;;;;;;2.78;1.70;;;;;;;25.37;38.97;97000.16;5134442;27;20030;-28
2022/06/11 10:26:37;;;;;;;2.20;1.40;;;;;;;25.34;38.85;96987.31;5134479;27;20019;-28
2022/06/11 10:29:16;;;;;;;2.15;1.70;;;;;;;25.36;38.89;96997.88;5134749;27;20027;-28
2022/06/11 10:31:51;;;;;;;2.92;1.80;;;;;;;25.37;38.53;96985.50;5116022;27;20180;-27
2022/06/11 10:34:24;;;;;;;2.58;1.50;;;;;;;25.34;38.59;96983.78;5134427;27;20471;-27
2022/06/11 10:37:49;;;;;;;3.15;1.60;;;;;;;25.34;38.71;96987.31;5134428;27;20030;-27
2022/06/11 10:40:30;;;;;;;2.08;1.63;;;;;;;25.33;38.71;96985.03;4997295;28;20077;-26
2022/06/11 10:43:02;;;;;;;2.80;1.50;;;;;;;25.48;38.32;96993.03;5039605;28;20548;-27
2022/06/11 10:45:27;;;;;;;2.30;2.08;;;;;;;25.50;38.07;96987.72;5028374;28;20448;-27
2022/06/11 10:47:57;;;;;;;2.25;1.83;;;;;;;25.51;38.14;96984.44;5028506;28;20044;-27
2022/06/11 10:50:28;;;;;;;2.97;1.73;;;;;;;26.47;37.11;96996.44;5028676;28;20034;-26
2022/06/11 10:52:59;;;;;;;3.25;1.88;;;;;;;27.54;34.48;96991.25;5028862;28;20132;-28
2022/06/11 10:55:41;;;;;;;2.42;1.48;;;;;;;27.92;34.02;96986.44;5027909;28;20120;-27
2022/06/11 10:58:22;;;;;;;2.85;1.63;;;;;;;28.14;34.05;96994.47;5028094;28;20107;-27
2022/06/11 11:00:53;;;;;;;1.70;1.58;;;;;;;28.05;33.90;96989.28;5046881;28;20032;-28
2022/06/11 11:03:29;;;;;;;2.15;1.40;;;;;;;28.21;33.66;96985.50;5048554;28;20040;-27
2022/06/11 11:06:03;;;;;;;2.35;1.52;;;;;;;28.17;33.81;96993.41;5048244;28;20032;-27
2022/06/11 11:08:29;;;;;;;2.13;1.70;;;;;;;28.09;33.89;96983.38;5048261;28;20044;-27
2022/06/11 11:10:56;;;;;;;4.55;1.60;;;;;;;28.08;34.04;96990.22;5047504;28;20041;-29
2022/06/11 11:13:50;;;;;;;2.58;1.80;;;;;;;28.13;34.17;96978.25;5047662;28;20064;-28
2022/06/11 11:16:22;;;;;;;2.85;1.75;;;;;;;28.14;34.10;96991.66;5068060;28;20039;-27
2022/06/11 11:19:10;;;;;;;2.13;1.63;;;;;;;28.05;34.10;96989.28;5109430;28;20518;-27
2022/06/11 11:21:49;;;;;;;5.22;1.65;;;;;;;27.98;33.20;96989.13;5111065;28;20055;-28
2022/06/11 11:24:19;;;;;;;1.80;1.60;;;;;;;28.08;34.26;96977.03;5111511;28;20031;-27
2022/06/11 11:27:05;;;;;;;1.85;1.42;;;;;;;28.10;34.13;96984.88;5111385;28;20080;-28
2022/06/11 11:29:53;;;;;;;1.75;1.48;;;;;;;28.07;34.02;96986.69;5111334;28;20039;-28
2022/06/11 11:32:25;;;;;;;2.05;1.30;;;;;;;27.95;33.83;96977.00;5110887;28;20101;-28
2022/06/11 11:34:51;;;;;;;1.98;1.50;;;;;;;27.95;33.36;96981.81;5111882;28;20552;-27
2022/06/11 11:37:16;;;;;;;1.45;1.30;;;;;;;27.98;33.77;96986.34;5114866;28;20027;-28
2022/06/11 11:39:52;;;;;;;1.33;1.23;;;;;;;27.95;34.14;96965.84;5115184;28;20078;-27
2022/06/11 11:42:22;;;;;;;1.77;1.48;;;;;;;27.91;34.10;96973.78;5114812;28;20426;-28
2022/06/11 11:44:50;;;;;;;1.75;1.50;;;;;;;27.85;34.64;96970.31;5115169;28;20102;-28
2022/06/11 11:47:25;;;;;;;1.83;1.35;;;;;;;27.80;34.07;96962.81;5096704;28;20023;-29
2022/06/11 11:50:12;;;;;;;1.23;1.13;;;;;;;27.82;33.80;96966.53;5114583;28;20063;-28
2022/06/11 11:52:46;;;;;;;1.95;1.40;;;;;;;27.86;34.55;96966.25;5114968;28;20024;-28
2022/06/11 11:55:30;;;;;;;2.42;1.70;;;;;;;27.82;33.86;96963.75;5114534;28;20051;-27
2022/06/11 11:58:21;;;;;;;1.60;1.50;;;;;;;27.82;34.54;96976.94;5096549;28;20034;-29
2022/06/11 12:00:58;;;;;;;3.08;1.48;;;;;;;27.78;34.12;96979.28;5114735;28;20035;-28